Flight Track Log - Related Links

Times and Time Zones

All times are in EDT time to prevent confusion due to time zone crossing. See the SWA318 flight status page for this flight to view local times or setup timezone preferences in your user account.

Time Position Orientation Groundspeed Altitude Reporting Facility
EDT Latitude Longitude Course Direction KTS MPH feet Rate Location/Type
Thu 04:52:53 PM 33.6497 -84.3756 89° East 435 501 2,800  Level Atlanta Center
Thu 04:53:08 PM 33.6500 -84.3500 89° East 210 242 4,100 3,440 Climbing Atlanta TRACON
Thu 04:54:08 PM 33.6667 -84.2667 76° East 278 320 7,100 2,145 Climbing Atlanta TRACON
Thu 04:55:53 PM 33.7711 -84.1736 37° Northeast 281 323 10,000 1,091 Climbing Atlanta Center
Thu 04:56:53 PM 33.8672 -84.1989 348° North 298 343 10,100 1,650 Climbing Atlanta Center
Thu 04:57:53 PM 33.9422 -84.2767 319° Northwest 303 349 13,300 1,950 Climbing Atlanta Center
Thu 04:58:53 PM 34.0233 -84.3547 321° Northwest 351 404 14,000 350 Climbing Atlanta Center
Thu 04:59:53 PM 34.0983 -84.4225 323° Northwest 374 430 14,000 150 Level Atlanta Center
Thu 05:00:53 PM 34.1858 -84.5033 323° Northwest 368 423 14,300 1,900 Climbing Atlanta Center
Thu 05:01:53 PM 34.2711 -84.5792 324° Northwest 373 429 17,800 3,100 Climbing Atlanta Center
Thu 05:02:53 PM 34.3731 -84.6203 342° North 378 435 20,500 2,850 Climbing Atlanta Center
Thu 05:03:53 PM 34.4878 -84.6461 349° North 394 453 23,500 2,700 Climbing Atlanta Center
Thu 05:04:53 PM 34.6025 -84.6722 349° North 413 475 25,900 2,250 Climbing Atlanta Center
Thu 05:05:53 PM 34.7192 -84.6858 355° North 418 481 28,000 2,400 Climbing Atlanta Center
Thu 05:06:53 PM 34.8422 -84.6969 356° North 424 488 30,700 2,450 Climbing Atlanta Center
Thu 05:07:53 PM 34.9569 -84.7078 356° North 424 488 32,900 1,150 Climbing Atlanta Center
Thu 05:08:53 PM 35.0739 -84.7189 356° North 424 488 33,000 550 Climbing Atlanta Center
Thu 05:09:53 PM 35.1928 -84.7275 357° North 424 488 34,000 500 Climbing Atlanta Center
Thu 05:10:53 PM 35.3136 -84.7386 356° North 424 488 34,000  Level Atlanta Center
Thu 05:11:53 PM 35.4367 -84.7500 356° North 429 494 34,000  Level Atlanta Center
Thu 05:12:53 PM 35.5556 -84.7611 356° North 429 494 34,000  Level Atlanta Center
Thu 05:13:53 PM 35.6764 -84.7700 357° North 429 494 34,000  Level Atlanta Center
Thu 05:14:53 PM 35.7850 -84.7761 357° North 429 494 34,000  Level Atlanta Center
Thu 05:15:53 PM 35.9100 -84.7925 354° North 434 499 34,000 -350 Level Atlanta Center
Thu 05:16:53 PM 36.0372 -84.8039 356° North 443 510 33,300 -902 Descending Atlanta Center
Thu 05:18:26 PM 36.2339 -84.8208 356° North 453 521 31,700 -1,006 Descending Indianapolis Center
Thu 05:19:28 PM 36.3594 -84.8328 356° North 452 520 30,700 -968 Descending Indianapolis Center
Thu 05:20:30 PM 36.4814 -84.8433 356° North 443 510 29,700 -927 Descending Indianapolis Center
Thu 05:21:31 PM 36.6028 -84.8550 356° North 438 504 28,800 -1,024 Descending Indianapolis Center
Thu 05:22:33 PM 36.7528 -84.8683 356° North 447 514 27,600 -1,073 Descending Indianapolis Center
Thu 05:23:34 PM 36.8792 -84.8811 355° North 453 521 26,600 -976 Descending Indianapolis Center
Thu 05:24:36 PM 37.0044 -84.8917 356° North 451 519 25,600 -1,790 Descending Indianapolis Center
Thu 05:25:38 PM 37.1322 -84.9042 356° North 444 511 22,900 -2,927 Descending Indianapolis Center
Thu 05:26:39 PM 37.2564 -84.9161 356° North 446 513 19,600 -3,122 Descending Indianapolis Center
Thu 05:27:41 PM 37.3850 -84.9275 356° North 457 526 16,500 -2,780 Descending Indianapolis Center
Thu 05:28:42 PM 37.5058 -84.9392 356° North 439 505 13,900 -2,439 Descending Indianapolis Center
Thu 05:29:44 PM 37.6208 -84.9514 355° North 416 479 11,500 -1,902 Descending Indianapolis Center
Thu 05:30:45 PM 37.7017 -85.0211 326° Northwest 357 411 10,000 -732 Descending Indianapolis Center
Thu 05:31:47 PM 37.7728 -85.1189 313° West 324 373 10,000  Level Indianapolis Center
Thu 05:32:49 PM 37.8314 -85.2008 312° West 316 364 10,000 -293 Level Indianapolis Center
Thu 05:33:50 PM 37.8797 -85.2664 313° West 307 353 9,400 -884 Descending Indianapolis Center
Thu 05:34:24 PM 37.9175 -85.3178 313° West 280 322 8,600 -1,309 Descending FAA TRACON SMA TRACON (SMA)
Thu 05:34:45 PM 37.9375 -85.3461 312° West 278 320 8,200 -1,077 Descending FAA TRACON SMA TRACON (SMA)
Thu 05:35:03 PM 37.9536 -85.3683 313° West 279 321 7,900 -923 Descending FAA TRACON SMA TRACON (SMA)
Thu 05:35:24 PM 37.9694 -85.3908 312° West 277 319 7,600 -1,377 Descending FAA TRACON SMA TRACON (SMA)
Thu 05:36:04 PM 38.0061 -85.4422 312° West 285 328 6,500 -1,600 Descending FAA TRACON SMA TRACON (SMA)
Thu 05:36:24 PM 38.0233 -85.4661 312° West 293 337 6,000 -769 Descending FAA TRACON SMA TRACON (SMA)
Thu 05:36:43 PM 38.0406 -85.4889 314° West 292 336 6,000  Level FAA TRACON SMA TRACON (SMA)
Thu 05:37:04 PM 38.0608 -85.5178 312° West 286 329 6,000  Level FAA TRACON SMA TRACON (SMA)
Thu 05:37:23 PM 38.0772 -85.5403 313° West 283 326 6,000  Level FAA TRACON SMA TRACON (SMA)
Thu 05:37:44 PM 38.0931 -85.5631 311° West 279 321 6,000 -750 Level FAA TRACON SMA TRACON (SMA)
Thu 05:38:03 PM 38.1183 -85.5853 325° Northwest 287 330 5,500 -1,500 Descending FAA TRACON SMA TRACON (SMA)
Thu 05:38:24 PM 38.1428 -85.5967 340° North 301 346 5,000 -1,317 Descending FAA TRACON SMA TRACON (SMA)
Thu 05:38:44 PM 38.1672 -85.6083 339° North 302 348 4,600 -1,385 Descending FAA TRACON SMA TRACON (SMA)
Thu 05:39:03 PM 38.1975 -85.6228 339° North 301 346 4,100 -900 Descending FAA TRACON SMA TRACON (SMA)
Thu 05:39:24 PM 38.2219 -85.6317 344° North 299 344 4,000 -150 Descending FAA TRACON SMA TRACON (SMA)
Thu 05:39:43 PM 38.2458 -85.6397 345° North 290 334 4,000  Level FAA TRACON SMA TRACON (SMA)
Thu 05:40:04 PM 38.2733 -85.6497 344° North 271 312 4,000 -450 Level FAA TRACON SMA TRACON (SMA)
Thu 05:40:23 PM 38.2953 -85.6578 344° North 264 304 3,700 -769 Descending FAA TRACON SMA TRACON (SMA)
Thu 05:40:43 PM 38.3169 -85.6650 345° North 261 300 3,500 -1,024 Descending FAA TRACON SMA TRACON (SMA)
Thu 05:41:04 PM 38.3444 -85.6719 349° North 260 299 3,000 -750 Descending FAA TRACON SMA TRACON (SMA)
Thu 05:41:23 PM 38.3636 -85.6844 333° Northwest 262 302 3,000  Level FAA TRACON SMA TRACON (SMA)
Thu 05:41:44 PM 38.3697 -85.7125 286° West 242 278 3,000  Level FAA TRACON SMA TRACON (SMA)
Thu 05:42:03 PM 38.3603 -85.7286 233° Southwest 208 239 3,000  Level FAA TRACON SMA TRACON (SMA)
Thu 05:42:24 PM 38.3489 -85.7386 215° Southwest 170 196 3,000 -146 Level FAA TRACON SMA TRACON (SMA)
Thu 05:42:44 PM 38.3331 -85.7483 206° Southwest 161 185 2,900 -154 Descending FAA TRACON SMA TRACON (SMA)
Thu 05:43:03 PM 38.3192 -85.7544 199° South 167 192 2,900 -300 Level FAA TRACON SMA TRACON (SMA)
Thu 05:43:24 PM 38.3053 -85.7581 192° South 167 192 2,700 -600 Descending FAA TRACON SMA TRACON (SMA)
Thu 05:43:43 PM 38.2883 -85.7592 183° South 160 184 2,500 -750 Descending FAA TRACON SMA TRACON (SMA)
Thu 05:44:04 PM 38.2750 -85.7581 176° South 155 178 2,200 -732 Descending FAA TRACON SMA TRACON (SMA)
Thu 05:44:24 PM 38.2625 -85.7564 174° South 150 173 2,000 -615 Descending FAA TRACON SMA TRACON (SMA)
Thu 05:44:43 PM 38.2506 -85.7528 167° South 145 167 1,800 -750 Descending FAA TRACON SMA TRACON (SMA)
Thu 05:45:04 PM 38.2369 -85.7483 166° South 131 151 1,500 -750 Descending FAA TRACON SMA TRACON (SMA)
Thu 05:45:23 PM 38.2261 -85.7447 165° South 130 150 1,300 -750 Descending FAA TRACON SMA TRACON (SMA)
Thu 05:45:44 PM 38.2122 -85.7397 164° South 134 154 1,000 -732 Descending FAA TRACON SMA TRACON (SMA)
Thu 05:46:04 PM 38.2008 -85.7358 165° South 135 155 800 -600 Descending FAA TRACON SMA TRACON (SMA)

Login

Don't have an account? Register now (free) for customized features, flight alerts, and more!